HOURLY OBS INDEX

032

North Coast - Herbert

CAPE FERGUSON NTC AWS

Site: 032182
Alt: 0.0m
26km E of TOWNSVILLE


  Time     Wind        Temp  DP   Baro     Rain since   Rain past  Vis(m), Cloud(base in m), Weather
  local        km/h                         9am  last   hr   10m    
Sun 20:00    C  0/  0  20.7----  1017.7   ----  ----  ----  ----   ----- 
Sun 20:30    W  4/  6  19.3----  1017.9   ----  ----  ----  ----   ----- 
Sun 21:00  WNW  6/  7  19.9----  1018.0   ----  ----  ----  ----   ----- 
Sun 21:30  WNW  4/  6  20.3----  1018.1   ----  ----  ----  ----   ----- 
Sun 22:00   NW  4/  6  20.1----  1018.2   ----  ----  ----  ----   ----- 
Sun 22:30   NW  4/  6  20.4----  1018.2   ----  ----  ----  ----   ----- 
Sun 23:00    C  0/  2  20.6----  1018.4   ----  ----  ----  ----   ----- 
Sun 23:30  WNW  2/  4  20.0----  1018.4   ----  ----  ----  ----   ----- 
Mon 00:00  WNW  2/  4  20.4----  1018.3   ----  ----  ----  ----   ----- 
Mon 00:30  WNW  2/  4  19.1----  1018.2   ----  ----  ----  ----   ----- 
Mon 01:00  WNW  4/  6  18.3----  1017.9   ----  ----  ----  ----   ----- 

COWLEY BEACH (DEFENCE)

Site: 032194
Alt: 17.0m
km of


  Time     Wind        Temp  DP   Baro     Rain since   Rain past  Vis(m), Cloud(base in m), Weather
  local        km/h                         9am  last   hr   10m    
Sun 20:00  SSE  4/  7  20.9 18.7  ------    0.0   0.0   0.0   0.0   ----- 
Sun 20:30    S  2/  6  20.2 18.1  ------    0.0   0.0   0.0   0.0   ----- 
Sun 21:00   SW  2/  4  18.7 17.2  ------    0.0   0.0   0.0   0.0   ----- 
Sun 21:30   SW  4/  6  18.1 17.0  ------    0.0   0.0   0.0   0.0   ----- 
Sun 22:00  WSW  6/  7  17.8 17.0  ------    0.0   0.0   0.0   0.0   ----- 
Sun 22:30  WSW  6/  6  17.4 16.6  ------    0.0   0.0   0.0   0.0   ----- 
Sun 23:00   SW  6/  6  17.1 16.3  ------    0.0   0.0   0.0   0.0   ----- 
Sun 23:30   SW  6/  9  16.5 15.7  ------    0.0   0.0   0.0   0.0   ----- 
Mon 00:00  WSW  6/  7  16.1 15.3  ------    0.0   0.0   0.0   0.0   ----- 
Mon 00:30  WSW  7/  9  16.1 15.3  ------    0.0   0.0   0.0   0.0   ----- 
Mon 01:00  WSW  7/  9  16.1 15.3  ------    0.0   0.0   0.0   0.0   ----- 

INNISFAIL AERODROME

Site: 032197
Alt: 11.8m
km of


  Time     Wind        Temp  DP   Baro     Rain since   Rain past  Vis(m), Cloud(base in m), Weather
  local        km/h                         9am  last   hr   10m    
Sun 20:00   SW  2/  6  18.1 17.5  1018.2    0.0   0.0   0.0   0.0   10000|SC1290 
Sun 20:30    C  0/  0  17.6 17.1  1018.4    0.0   0.0   0.0   0.0   10000 
Sun 21:00  WNW  6/  7  17.4 17.2  1018.5    0.0   0.0   0.0   0.0   10000|SC 450 
Sun 21:09  WNW  6/  7  17.5 17.3  1018.4    0.0   0.0  ----   0.0   10000|BR 450 
Sun 21:30    C  0/  0  17.3 17.1  1018.5    0.0   0.0   0.0   0.0   10000|BR 450 
Sun 21:42    W  9/  9  16.5 16.0  1018.5    0.0   0.0  ----   0.0   10000|SC 510 
Sun 22:00  WSW  6/  7  16.5 16.2  1018.5    0.0   0.0   0.0   0.0   10000|SC 570 
Sun 22:30  WSW  9/ 11  17.3 17.3  1018.4    0.0   0.0   0.0   0.0   10000 
Sun 23:00  WSW 13/ 15  17.8 17.6  1018.3    0.0   0.0   0.0   0.0   10000 
Sun 23:30  WSW 13/ 15  17.6 17.3  1018.2    0.0   0.0   0.0   0.0   10000 
Mon 00:00  WSW 11/ 13  17.5 17.0  1018.2    0.0   0.0   0.0   0.0   10000|SC 540 
Mon 00:30    W  9/ 11  17.0 16.5  1018.1    0.0   0.0   0.0   0.0   10000 
Mon 01:00    W  9/ 11  16.5 16.0  1018.0    0.0   0.0   0.0   0.0   10000|SC 480 
Mon 01:02    W  9/ 11  16.5 16.0  1018.0    0.0   0.0  ----   0.0   10000|BR 480 

LUCINDA POINT

Site: 032141
Alt: 10.0m
94km NNW of TOWNSVILLE


  Time     Wind        Temp  DP   Baro     Rain since   Rain past  Vis(m), Cloud(base in m), Weather
  local        km/h                         9am  last   hr   10m    
Sun 20:00    E  2/  6  21.1 18.1  1017.9    0.0   0.0   0.0   0.0   ----- 
Sun 20:30    C  0/  0  20.9 18.1  1018.2    0.0   0.0   0.0   0.0   ----- 
Sun 21:00    C  0/  0  20.8 18.2  1018.2    0.0   0.0   0.0   0.0   ----- 
Sun 21:30    C  0/  0  20.5 17.9  1018.0    0.0   0.0   0.0   0.0   ----- 
Sun 22:00    C  0/  0  20.8 18.4  1018.2    0.0   0.0   0.0   0.0   ----- 
Sun 22:30    C  0/  0  21.0 18.6  1018.3    0.0   0.0   0.0   0.0   ----- 
Sun 23:00  SSW  7/  7  21.1 18.5  1018.3    0.0   0.0   0.0   0.0   ----- 
Sun 23:30   SW  7/ 11  21.2 18.8  1018.2    0.0   0.0   0.0   0.0   ----- 
Mon 00:00   SW 11/ 13  20.5 20.5  1018.2    0.0   0.0   0.0   0.0   ----- 
Mon 00:30   SW 11/ 13  20.0----  1018.1    0.0   0.0   0.0   0.0   ----- 
Mon 01:00  WSW 13/ 15  19.1----  1017.9    0.0   0.0   0.0   0.0   ----- 

MOUNT STUART (DEFENCE)

Site: 032195
Alt: 163.0m
17km SSW of TOWNSVILLE


  Time     Wind        Temp  DP   Baro     Rain since   Rain past  Vis(m), Cloud(base in m), Weather
  local        km/h                         9am  last   hr   10m    
Sun 20:00    N  7/ 15  20.2 10.6  ------    0.0   0.0   0.0   0.0   ----- 
Sun 20:30    N  9/ 13  19.6 14.0  ------    0.0   0.0   0.0   0.0   ----- 
Sun 21:00    N  7/ 11  19.1 15.2  ------    0.0   0.0   0.0   0.0   ----- 
Sun 21:30    N  9/ 11  19.0 15.3  ------    0.0   0.0   0.0   0.0   ----- 
Sun 22:00    N  9/ 13  19.3 15.2  ------    0.0   0.0   0.0   0.0   ----- 
Sun 22:30  NNE  9/ 13  19.6 13.5  ------    0.0   0.0   0.0   0.0   ----- 
Sun 23:00  NNE  7/  9  19.8 12.3  ------    0.0   0.0   0.0   0.0   ----- 
Sun 23:30    N  6/  7  19.7 13.4  ------    0.0   0.0   0.0   0.0   ----- 
Mon 00:00  ENE 11/ 17  20.2  9.5  ------    0.0   0.0   0.0   0.0   ----- 
Mon 00:30  ENE 11/ 17  19.9  8.6  ------    0.0   0.0   0.0   0.0   ----- 
Mon 01:00  ENE  9/ 15  19.8 10.2  ------    0.0   0.0   0.0   0.0   ----- 

SOUTH JOHNSTONE EXP STN

Site: 032037
Alt: 18.3m
81km SSE of CAIRNS


  Time     Wind        Temp  DP   Baro     Rain since   Rain past  Vis(m), Cloud(base in m), Weather
  local        km/h                         9am  last   hr   10m    
Sun 20:00    C  0/  0  19.4 18.3  1018.7    0.0   0.0   0.0   0.0   ----- 
Sun 20:30    C  0/  4  18.9 17.9  1018.9    0.0   0.0   0.0   0.0   ----- 
Sun 21:00  WNW  2/  6  18.5 17.7  1018.9    0.0   0.0   0.0   0.0   ----- 
Sun 21:30  WSW  6/  9  18.2 17.4  1019.0    0.0   0.0   0.0   0.0   ----- 
Sun 22:00  WSW 11/ 13  17.8 17.1  1019.0    0.0   0.0   0.0   0.0   ----- 
Sun 22:30  WSW 11/ 13  17.9 17.2  1018.9    0.0   0.0   0.0   0.0   ----- 
Sun 23:00  WSW 11/ 13  17.4 16.7  1018.8    0.0   0.0   0.0   0.0   ----- 
Sun 23:30    W  7/ 11  17.1 16.4  1018.7    0.0   0.0   0.0   0.0   ----- 
Mon 00:00    W  6/  7  16.7 16.2  1018.7    0.0   0.0   0.0   0.0   ----- 
Mon 00:30   SW  6/  9  16.4 15.9  1018.6    0.0   0.0   0.0   0.0   ----- 
Mon 01:00    C  0/  6  16.4 15.9  1018.5    0.0   0.0   0.0   0.0   ----- 

TOWNSVILLE - AIR WEAPONS RANGE (DEFENCE)

Site: 032196
Alt: 384.0m
60km W of TOWNSVILLE


  Time     Wind        Temp  DP   Baro     Rain since   Rain past  Vis(m), Cloud(base in m), Weather
  local        km/h                         9am  last   hr   10m    
Sun 20:00  ENE 11/ 13  18.1  8.9  ------    0.0   0.0   0.0   0.0   ----- 
Sun 20:30  ENE 11/ 13  17.9  8.7  ------    0.0   0.0   0.0   0.0   ----- 
Sun 21:00  ENE 13/ 17  17.9  8.5  ------    0.0   0.0   0.0   0.0   ----- 
Sun 21:30  ENE 11/ 15  17.6  8.2  ------    0.0   0.0   0.0   0.0   ----- 
Sun 22:00   NE 11/ 13  17.1  7.5  ------    0.0   0.0   0.0   0.0   ----- 
Sun 22:30   NE 11/ 13  17.1  6.9  ------    0.0   0.0   0.0   0.0   ----- 
Sun 23:00   NE 11/ 13  17.1  6.6  ------    0.0   0.0   0.0   0.0   ----- 
Sun 23:30  ENE 11/ 15  17.1  6.3  ------    0.0   0.0   0.0   0.0   ----- 
Mon 00:00  ENE 15/ 22  17.3  5.6  ------    0.0   0.0   0.0   0.0   ----- 
Mon 00:30  ENE 15/ 20  17.4  5.7  ------    0.0   0.0   0.0   0.0   ----- 
Mon 01:00  ENE 15/ 19  17.5  5.8  ------    0.0   0.0   0.0   0.0   ----- 

TOWNSVILLE AERO

Site: 032040
Alt: 4.3m
5km WNW of TOWNSVILLE


  Time     Wind        Temp  DP   Baro     Rain since   Rain past  Vis(m), Cloud(base in m), Weather
  local        km/h                         9am  last   hr   10m    
Sun 20:00  WNW  9/  9  18.4 16.4  1018.0    0.0   0.0   0.0   0.0   10000 
Sun 20:30    W  7/  7  18.2 16.2  1018.2    0.0   0.0   0.0   0.0   10000 
Sun 21:00    C  0/  0  17.9 15.9  1018.4    0.0   0.0   0.0   0.0   10000 
Sun 21:30    C  0/  0  18.0 16.3  1018.4    0.0   0.0   0.0   0.0   10000 
Sun 22:00    C  0/  0  17.6 16.3  1018.3    0.0   0.0   0.0   0.0   10000 
Sun 22:30    W  2/  7  18.1 15.5  1018.4    0.0   0.0   0.0   0.0   10000 
Sun 23:00    C  0/  0  17.2 14.8  1018.6    0.0   0.0   0.0   0.0   10000 
Sun 23:30    C  0/  0  15.5 14.1  1018.5    0.0   0.0   0.0   0.0   10000 
Mon 00:00    C  0/  0  15.6 14.7  1018.5    0.0   0.0   0.0   0.0   10000 
Mon 00:30    C  0/  0  15.2 14.3  1018.4    0.0   0.0   0.0   0.0   10000 
Mon 01:00    W  6/  7  14.8 14.1  1018.2    0.0   0.0   0.0   0.0   10000